DIPPU EKTS-ENLI

Flight info

Callsign DIPPU
Flight time 0h 27m
Altitude 8500
Route VFR
Aircraft AEST/L-S/S

Departure

Time 2026-04-22 19:28
Airport Thisted Airport (EKTS)

Arrival

Time 2026-04-22 19:55
Airport Lista Airport (ENLI)
Time Latitude Longitude Altitude Speed Heading
2026-04-22 19:17 57.07194 8.69511 24 ft 0 kts 57°
2026-04-22 19:22 57.07207 8.69516 24 ft 5 kts 308°
2026-04-22 19:23 57.07190 8.69497 26 ft 2 kts 175°
2026-04-22 19:23 57.07158 8.69469 23 ft 8 kts 207°
2026-04-22 19:23 57.07098 8.69399 24 ft 12 kts 213°
2026-04-22 19:23 57.07015 8.69369 25 ft 12 kts 159°
2026-04-22 19:24 57.06981 8.69513 24 ft 15 kts 102°
2026-04-22 19:24 57.06952 8.69751 25 ft 23 kts 103°
2026-04-22 19:24 57.06918 8.70074 25 ft 28 kts 100°
2026-04-22 19:24 57.06882 8.70453 24 ft 32 kts 98°
2026-04-22 19:25 57.06847 8.70841 24 ft 29 kts 100°
2026-04-22 19:25 57.06813 8.71192 24 ft 27 kts 100°
2026-04-22 19:25 57.06785 8.71524 23 ft 26 kts 98°
2026-04-22 19:25 57.06765 8.71770 24 ft 8 kts 99°
2026-04-22 19:26 57.06764 8.71779 24 ft 0 kts 104°
2026-04-22 19:26 57.06756 8.71785 24 ft 3 kts 211°
2026-04-22 19:26 57.06753 8.71769 24 ft 0 kts 278°
2026-04-22 19:27 57.06754 8.71763 24 ft 5 kts 278°
2026-04-22 19:27 57.06814 8.71162 24 ft 89 kts 280°
2026-04-22 19:27 57.06954 8.69860 150 ft 112 kts 284°
2026-04-22 19:27 57.07470 8.68680 435 ft 134 kts 329°
2026-04-22 19:28 57.08340 8.67897 865 ft 142 kts 324°
2026-04-22 19:28 57.09085 8.66691 1344 ft 145 kts 314°
2026-04-22 19:28 57.09802 8.65346 1820 ft 149 kts 313°
2026-04-22 19:28 57.10525 8.63962 2309 ft 150 kts 313°
2026-04-22 19:29 57.11244 8.62565 2797 ft 151 kts 313°
2026-04-22 19:29 57.11979 8.61155 3256 ft 154 kts 315°
2026-04-22 19:29 57.12726 8.59730 3723 ft 155 kts 315°
2026-04-22 19:29 57.13468 8.58290 4171 ft 155 kts 316°
2026-04-22 19:30 57.13961 8.57341 4466 ft 155 kts 315°
2026-04-22 19:30 57.14947 8.55417 5064 ft 154 kts 315°
2026-04-22 19:30 57.15681 8.53986 5501 ft 152 kts 315°
2026-04-22 19:30 57.16395 8.52592 5922 ft 151 kts 315°
2026-04-22 19:31 57.17115 8.51185 6311 ft 153 kts 315°
2026-04-22 19:31 57.17864 8.49734 6602 ft 159 kts 315°
2026-04-22 19:31 57.18626 8.48239 6912 ft 161 kts 315°
2026-04-22 19:31 57.19396 8.46736 7220 ft 161 kts 315°
2026-04-22 19:32 57.20166 8.45233 7526 ft 161 kts 315°
2026-04-22 19:32 57.20936 8.43731 7825 ft 161 kts 315°
2026-04-22 19:32 57.21704 8.42229 8130 ft 161 kts 315°
2026-04-22 19:32 57.22469 8.40731 8418 ft 160 kts 315°
2026-04-22 19:33 57.23234 8.39231 8691 ft 161 kts 315°
2026-04-22 19:33 57.23999 8.37730 8962 ft 161 kts 315°
2026-04-22 19:33 57.24793 8.36177 9024 ft 172 kts 315°
2026-04-22 19:33 57.25647 8.34504 8987 ft 185 kts 315°
2026-04-22 19:34 57.26559 8.32718 8923 ft 196 kts 315°
2026-04-22 19:34 57.27511 8.30846 8872 ft 203 kts 315°
2026-04-22 19:34 57.28484 8.28932 8888 ft 205 kts 315°
2026-04-22 19:34 57.29463 8.27004 8888 ft 206 kts 314°
2026-04-22 19:35 57.30449 8.25060 8869 ft 209 kts 314°
2026-04-22 19:35 57.31447 8.23091 8881 ft 210 kts 314°
2026-04-22 19:35 57.32107 8.21784 8889 ft 210 kts 314°
2026-04-22 19:35 57.33431 8.19168 8881 ft 211 kts 314°
2026-04-22 19:36 57.34437 8.17179 8882 ft 212 kts 314°
2026-04-22 19:36 57.35445 8.15183 8880 ft 212 kts 314°
2026-04-22 19:36 57.36455 8.13181 8882 ft 213 kts 314°
2026-04-22 19:36 57.37465 8.11176 8884 ft 213 kts 314°
2026-04-22 19:37 57.38471 8.09174 8879 ft 212 kts 314°
2026-04-22 19:37 57.39480 8.07173 8882 ft 212 kts 314°
2026-04-22 19:37 57.40491 8.05167 8880 ft 213 kts 314°
2026-04-22 19:37 57.41498 8.03159 8880 ft 213 kts 314°
2026-04-22 19:38 57.42508 8.01147 8880 ft 213 kts 314°
2026-04-22 19:38 57.43517 7.99134 8882 ft 213 kts 314°
2026-04-22 19:38 57.44526 7.97121 8885 ft 213 kts 314°
2026-04-22 19:38 57.45534 7.95107 8887 ft 213 kts 314°
2026-04-22 19:39 57.46543 7.93091 8882 ft 213 kts 314°
2026-04-22 19:39 57.47551 7.91074 8883 ft 213 kts 314°
2026-04-22 19:39 57.48562 7.89049 8881 ft 213 kts 314°
2026-04-22 19:39 57.49572 7.87023 8881 ft 213 kts 314°
2026-04-22 19:40 57.50580 7.85002 8884 ft 213 kts 314°
2026-04-22 19:40 57.51587 7.82979 8880 ft 213 kts 314°
2026-04-22 19:40 57.52595 7.80954 8875 ft 214 kts 314°
2026-04-22 19:40 57.53591 7.78955 8883 ft 214 kts 314°
2026-04-22 19:41 57.54593 7.76928 8881 ft 213 kts 314°
2026-04-22 19:41 57.55598 7.74908 8882 ft 213 kts 314°
2026-04-22 19:41 57.56610 7.72874 8884 ft 214 kts 314°
2026-04-22 19:41 57.57612 7.70842 8885 ft 213 kts 314°
2026-04-22 19:42 57.58617 7.68814 8881 ft 212 kts 314°
2026-04-22 19:42 57.59619 7.66785 8883 ft 212 kts 314°
2026-04-22 19:42 57.60619 7.64762 8883 ft 212 kts 314°
2026-04-22 19:42 57.61612 7.62717 8874 ft 214 kts 310°
2026-04-22 19:43 57.63285 7.58128 8886 ft 215 kts 304°
2026-04-22 19:43 57.64157 7.55875 8879 ft 213 kts 309°
2026-04-22 19:43 57.65055 7.53720 8882 ft 213 kts 309°
2026-04-22 19:44 57.65972 7.51537 8886 ft 213 kts 309°
2026-04-22 19:44 57.66886 7.49360 8885 ft 214 kts 309°
2026-04-22 19:44 57.67814 7.47171 8885 ft 214 kts 309°
2026-04-22 19:44 57.68761 7.45024 8882 ft 215 kts 314°
2026-04-22 19:45 57.69460 7.43707 8883 ft 214 kts 317°
2026-04-22 19:45 57.70867 7.41087 8887 ft 214 kts 315°
2026-04-22 19:45 57.71895 7.39071 8881 ft 214 kts 314°
2026-04-22 19:45 57.72912 7.37046 8881 ft 214 kts 314°
2026-04-22 19:46 57.73932 7.35026 8885 ft 213 kts 314°
2026-04-22 19:46 57.74954 7.33006 8881 ft 214 kts 314°
2026-04-22 19:46 57.75975 7.30985 8883 ft 214 kts 314°
2026-04-22 19:46 57.77009 7.28937 8720 ft 221 kts 314°
2026-04-22 19:47 57.78074 7.26833 8487 ft 228 kts 314°
2026-04-22 19:47 57.79170 7.24656 8295 ft 231 kts 314°
2026-04-22 19:47 57.79913 7.23177 8178 ft 232 kts 314°
2026-04-22 19:47 57.81380 7.20255 7928 ft 233 kts 314°
2026-04-22 19:48 57.82496 7.18034 7732 ft 234 kts 314°
2026-04-22 19:48 57.83608 7.15817 7550 ft 231 kts 314°
2026-04-22 19:48 57.84708 7.13621 7344 ft 230 kts 314°
2026-04-22 19:48 57.85802 7.11436 7139 ft 230 kts 314°
2026-04-22 19:49 57.86899 7.09246 6933 ft 229 kts 314°
2026-04-22 19:49 57.87991 7.07061 6730 ft 229 kts 314°
2026-04-22 19:49 57.89080 7.04881 6526 ft 229 kts 314°
2026-04-22 19:49 57.90167 7.02702 6324 ft 228 kts 314°
2026-04-22 19:50 57.91251 7.00526 6130 ft 227 kts 314°
2026-04-22 19:50 57.92327 6.98365 5935 ft 225 kts 314°
2026-04-22 19:50 57.93393 6.96225 5729 ft 224 kts 314°
2026-04-22 19:50 57.94456 6.94087 5524 ft 224 kts 313°
2026-04-22 19:51 57.95519 6.91945 5324 ft 224 kts 313°
2026-04-22 19:51 57.96566 6.89832 5129 ft 222 kts 313°
2026-04-22 19:51 57.97611 6.87727 4885 ft 219 kts 313°
2026-04-22 19:51 57.98646 6.85640 4631 ft 217 kts 313°
2026-04-22 19:52 57.99678 6.83554 4381 ft 218 kts 313°
2026-04-22 19:52 58.00710 6.81465 4132 ft 214 kts 313°
2026-04-22 19:52 58.01691 6.79485 3877 ft 200 kts 312°
2026-04-22 19:52 58.02619 6.77603 3561 ft 192 kts 312°
2026-04-22 19:53 58.03507 6.75799 3235 ft 184 kts 312°
2026-04-22 19:53 58.04344 6.74037 2913 ft 175 kts 310°
2026-04-22 19:53 58.04860 6.72892 2653 ft 171 kts 310°
2026-04-22 19:53 58.05985 6.70712 1883 ft 174 kts 319°
2026-04-22 19:54 58.06874 6.69174 1222 ft 175 kts 315°
2026-04-22 19:54 58.07674 6.67464 726 ft 162 kts 312°
2026-04-22 19:54 58.08326 6.66097 576 ft 121 kts 313°
2026-04-22 19:54 58.08856 6.64986 217 ft 106 kts 313°
2026-04-22 19:55 58.09304 6.64033 37 ft 77 kts 312°
2026-04-22 19:55 58.09572 6.63459 29 ft 46 kts 310°
2026-04-22 19:55 58.09757 6.63063 29 ft 36 kts 310°
2026-04-22 19:55 58.09905 6.62737 25 ft 30 kts 310°
2026-04-22 19:56 58.10009 6.62545 24 ft 16 kts
2026-04-22 19:56 58.10048 6.62696 27 ft 14 kts 90°
2026-04-22 19:56 58.10050 6.62900 27 ft 17 kts 87°
2026-04-22 19:56 58.10120 6.63075 27 ft 19 kts 19°
2026-04-22 19:57 58.10250 6.63149 27 ft 18 kts 12°
2026-04-22 19:57 58.10332 6.63039 27 ft 14 kts 309°
2026-04-22 19:57 58.10333 6.62984 26 ft 0 kts 184°